VECC/CCU METAR and TAF weather

Enter ICAO airport designator
Station Type Date Time Source
VECC METAR 2021/05/10 01:30 UTC NOAA

VECC 100130Z 00000KT 1300 R19L/2500 BR SCT018 SCT100 26/23 Q1007 BECMG 1500 BR


Station Type Date Time Source
VECC Decoded METAR 2021/05/10 01:30 UTC NOAA

Calcutta / Dum Dum, India (VECC) 22-39N 088-27E 6M
May 09, 2021 - 09:30 PM EDT / 2021.05.10 0130 UTC
Wind: Calm:0
Visibility: less than 1 mile:0
Sky conditions: partly cloudy
Weather: mist
Temperature: 78 F (26 C)
Dew Point: 73 F (23 C)
Relative Humidity: 83%
Pressure (altimeter): 29.74 in. Hg (1007 hPa)
ob: VECC 100130Z 00000KT 1300 R19L/2500 BR SCT018 SCT100 26/23 Q1007 BECMG 1500 BR
cycle: 1

Station Type Date Time Source
VECC TAF 2021/05/09 18:45 UTC NOAA

TAF VECC 091700Z 0918/1024 17006KT 3200 HZ SCT020 SCT100
BECMG 1000/1002 00000KT 2800 HZ
BECMG 1004/1006 19007KT 3500 HZ
TEMPO 1007/1011 31020G30KT 1500 TSRA SCT015 FEW025CB OVC090
BECMG 1018/1020 2500 -RA HZ

Example: see airport list